createdAt,value
2022-12-22T00:02:36.999Z,98328.34
2022-12-22T00:05:32.286Z,98333.72
2022-12-22T00:08:19.101Z,98327.75
2022-12-22T00:11:04.853Z,98330.97
2022-12-22T00:13:50.564Z,98325.88
2022-12-22T00:16:36.593Z,98323.19
2022-12-22T00:19:22.928Z,98321.56
2022-12-22T00:22:08.539Z,98315.34
2022-12-22T00:24:55.273Z,98315.34
2022-12-22T00:27:46.904Z,98316.41
2022-12-22T00:30:32.781Z,98313.72
2022-12-22T00:33:19.041Z,98315.03
2022-12-22T00:36:04.773Z,98303.66
2022-12-22T00:38:50.195Z,98298.88
2022-12-22T00:41:37.224Z,98304.25
2022-12-22T00:44:22.254Z,98298.03
2022-12-22T00:47:07.577Z,98299.91
2022-12-22T00:49:54.520Z,98295.34
2022-12-22T00:52:42.212Z,98293.72
2022-12-22T00:55:32.637Z,98292.66
2022-12-22T00:58:20.928Z,98298.88
2022-12-22T01:01:06.234Z,98287.28
2022-12-22T01:03:51.763Z,98286.44
2022-12-22T01:06:37.759Z,98281.88
2022-12-22T01:09:24.443Z,98282.72
2022-12-22T01:12:09.887Z,98281.06
2022-12-22T01:14:57.073Z,98272.97
2022-12-22T01:17:42.302Z,98277.56
2022-12-22T01:20:28.680Z,98269.47
2022-12-22T01:23:14.227Z,98266.78
2022-12-22T01:25:59.644Z,98261.41
2022-12-22T01:28:45.223Z,98267.88
2022-12-22T01:31:37.512Z,98265.41
2022-12-22T01:34:22.763Z,98261.16
2022-12-22T01:37:08.063Z,98262.19
2022-12-22T01:39:53.139Z,98256.81
2022-12-22T01:42:38.484Z,98250.63
2022-12-22T01:45:39.298Z,98252.50
2022-12-22T01:48:30.236Z,98241.72
2022-12-22T01:51:16.707Z,98240.94
2022-12-22T01:54:02.562Z,98243.63
2022-12-22T01:56:47.826Z,98233.88
2022-12-22T01:59:33.150Z,98227.34
2022-12-22T02:02:20.526Z,98220.94
2022-12-22T02:05:08.213Z,98217.72
2022-12-22T02:08:17.214Z,98216.09
2022-12-22T02:11:21.046Z,98212.63
2022-12-22T02:14:18.909Z,98201.50
2022-12-22T02:17:12.053Z,98211.19
2022-12-22T02:20:21.462Z,98203.13
2022-12-22T02:23:15.480Z,98204.19
2022-12-22T02:26:09.017Z,98196.13
2022-12-22T02:28:56.215Z,98194.25
2022-12-22T02:31:41.554Z,98192.34
2022-12-22T02:34:32.070Z,98200.44
2022-12-22T02:37:26.057Z,98199.38
2022-12-22T02:40:20.414Z,98199.63
2022-12-22T02:43:16.606Z,98204.19
2022-12-22T02:46:12.247Z,98206.09
2022-12-22T02:49:03.818Z,98213.88
2022-12-22T02:51:53.580Z,98207.94
2022-12-22T02:54:42.474Z,98209.56
2022-12-22T02:57:28.168Z,98210.66
2022-12-22T03:00:13.416Z,98207.13
2022-12-22T03:03:00.192Z,98199.03
2022-12-22T03:05:45.660Z,98200.13
2022-12-22T03:08:31.155Z,98195.56
2022-12-22T03:11:16.426Z,98201.50
2022-12-22T03:14:01.731Z,98194.72
2022-12-22T03:16:46.982Z,98174.00
2022-12-22T03:19:33.915Z,98200.38
2022-12-22T03:22:19.251Z,98185.28
2022-12-22T03:25:04.719Z,98170.25
2022-12-22T03:27:31.684Z,98184.78
2022-12-22T03:29:58.570Z,98187.47
2022-12-22T03:32:25.407Z,98181.25
2022-12-22T03:34:53.696Z,98182.88
2022-12-22T03:37:20.556Z,98174.81
2022-12-22T03:39:47.452Z,98174.81
2022-12-22T03:42:32.637Z,98177.25
2022-12-22T03:45:17.789Z,98177.25
2022-12-22T03:47:44.701Z,98174.81
2022-12-22T03:50:12.940Z,98170.25
2022-12-22T03:52:39.832Z,98166.47
2022-12-22T03:55:07.427Z,98152.22
2022-12-22T03:57:34.745Z,98162.72
2022-12-22T04:00:01.609Z,98160.03
2022-12-22T04:02:39.050Z,98161.69
2022-12-22T04:05:06.611Z,98162.72
2022-12-22T04:07:34.873Z,98167.31
2022-12-22T04:10:20.424Z,98163.56
2022-12-22T04:12:56.312Z,98163.25
2022-12-22T04:15:25.008Z,98163.00
2022-12-22T04:17:52.278Z,98168.38
2022-12-22T04:20:20.844Z,98162.16
2022-12-22T04:22:49.272Z,98165.69
2022-12-22T04:25:16.401Z,98155.72
2022-12-22T04:27:43.337Z,98162.41
2022-12-22T04:30:11.777Z,98170.25
2022-12-22T04:32:38.670Z,98177.25
2022-12-22T04:35:07.051Z,98170.25
2022-12-22T04:37:33.950Z,98183.72
2022-12-22T04:40:02.594Z,98178.31
2022-12-22T04:42:29.757Z,98171.06
2022-12-22T04:44:56.647Z,98170.00
2022-12-22T04:47:23.579Z,98170.25
2022-12-22T04:49:50.487Z,98170.25
2022-12-22T04:52:17.347Z,98171.88
2022-12-22T04:54:44.222Z,98159.97
2022-12-22T04:57:12.779Z,98162.41
2022-12-22T04:59:39.675Z,98153.25
2022-12-22T05:02:06.779Z,98172.34
2022-12-22T05:04:33.742Z,98182.09
2022-12-22T05:07:00.669Z,98195.56
2022-12-22T05:09:27.527Z,98187.47
2022-12-22T05:11:54.471Z,98191.22
2022-12-22T05:14:22.742Z,98191.22
2022-12-22T05:16:49.673Z,98201.19
2022-12-22T05:19:16.726Z,98212.50
2022-12-22T05:21:43.689Z,98210.66
2022-12-22T05:24:10.593Z,98214.66
2022-12-22T05:26:37.458Z,98215.44
2022-12-22T05:29:04.428Z,98215.44
2022-12-22T05:31:32.661Z,98209.28
2022-12-22T05:33:59.624Z,98204.13
2022-12-22T05:36:26.498Z,98212.19
2022-12-22T05:38:53.423Z,98220.84
2022-12-22T05:41:20.320Z,98210.06
2022-12-22T05:43:47.241Z,98206.00
2022-12-22T05:46:14.198Z,98203.06
2022-12-22T05:48:42.579Z,98207.13
2022-12-22T05:51:10.177Z,98200.44
2022-12-22T05:53:37.769Z,98186.22
2022-12-22T05:56:05.695Z,98203.53
2022-12-22T05:58:33.243Z,98188.75
2022-12-22T06:01:00.999Z,98191.75
2022-12-22T06:03:28.793Z,98198.03
2022-12-22T06:05:58.374Z,98192.97
2022-12-22T06:08:26.291Z,98192.22
2022-12-22T06:10:54.820Z,98205.81
2022-12-22T06:13:22.439Z,98210.19
2022-12-22T06:15:49.777Z,98216.69
2022-12-22T06:18:17.155Z,98204.09
2022-12-22T06:20:45.716Z,98208.75
2022-12-22T06:23:14.079Z,98213.38
2022-12-22T06:25:40.958Z,98204.56
2022-12-22T06:28:07.825Z,98209.19
2022-12-22T06:30:34.680Z,98221.66
2022-12-22T06:33:01.704Z,98214.94
2022-12-22T06:35:28.831Z,98207.75
2022-12-22T06:37:55.884Z,98218.81
2022-12-22T06:40:24.134Z,98210.50
2022-12-22T06:43:10.060Z,98211.84
2022-12-22T06:45:39.132Z,98208.38
2022-12-22T06:48:07.129Z,98202.16
2022-12-22T06:50:34.476Z,98194.59
2022-12-22T06:53:01.418Z,98192.47
2022-12-22T06:55:29.734Z,98188.72
2022-12-22T06:57:56.701Z,98192.78
2022-12-22T07:00:23.792Z,98191.97
2022-12-22T07:02:50.736Z,98207.34
2022-12-22T07:05:17.918Z,98199.25
2022-12-22T07:07:44.804Z,98199.50
2022-12-22T07:10:12.826Z,98203.28
2022-12-22T07:12:41.163Z,98187.91
2022-12-22T07:15:09.675Z,98189.53
2022-12-22T07:17:36.507Z,98196.25
2022-12-22T07:20:03.810Z,98190.03
2022-12-22T07:22:31.221Z,98200.81
2022-12-22T07:24:58.359Z,98209.75
2022-12-22T07:27:25.503Z,98209.50
2022-12-22T07:29:53.729Z,98206.50
2022-12-22T07:32:20.605Z,98217.06
2022-12-22T07:34:47.526Z,98213.06
2022-12-22T07:37:14.441Z,98219.03
2022-12-22T07:39:41.287Z,98244.44
2022-12-22T07:42:29.615Z,98265.53
2022-12-22T07:44:58.310Z,98255.03
2022-12-22T07:47:29.934Z,98271.50
2022-12-22T07:50:18.732Z,98264.53
2022-12-22T07:52:45.616Z,98283.19
2022-12-22T07:55:12.515Z,98296.94
2022-12-22T07:57:39.419Z,98297.81
2022-12-22T08:00:09.166Z,98310.56
2022-12-22T08:02:39.814Z,98304.94
2022-12-22T08:05:07.608Z,98307.16
2022-12-22T08:07:34.530Z,98322.28
2022-12-22T08:10:01.686Z,98319.31
2022-12-22T08:12:29.801Z,98330.66
2022-12-22T08:14:56.834Z,98324.22
2022-12-22T08:17:26.539Z,98329.63
2022-12-22T08:19:53.505Z,98329.34
2022-12-22T08:22:23.737Z,98351.50
2022-12-22T08:24:51.080Z,98353.97
2022-12-22T08:27:25.958Z,98362.84
2022-12-22T08:29:57.222Z,98356.91
2022-12-22T08:32:25.493Z,98365.56
2022-12-22T08:34:53.815Z,98373.41
2022-12-22T08:37:23.437Z,98366.97
2022-12-22T08:39:54.654Z,98372.38
2022-12-22T08:42:24.081Z,98374.25
2022-12-22T08:44:53.443Z,98382.59
2022-12-22T08:47:20.831Z,98376.38
2022-12-22T08:49:49.896Z,98393.38
2022-12-22T08:52:18.714Z,98399.88
2022-12-22T08:54:46.615Z,98397.66
2022-12-22T08:57:13.514Z,98401.44
2022-12-22T08:59:40.413Z,98406.84
2022-12-22T09:02:07.726Z,98413.84
2022-12-22T09:04:35.299Z,98405.50
2022-12-22T09:07:03.686Z,98419.00
2022-12-22T09:09:31.755Z,98407.97
2022-12-22T09:11:58.695Z,98416.31
2022-12-22T09:14:25.608Z,98415.81
2022-12-22T09:16:52.687Z,98422.00
2022-12-22T09:19:19.925Z,98426.38
2022-12-22T09:21:47.179Z,98435.50
2022-12-22T09:24:15.757Z,98442.56
2022-12-22T09:26:43.082Z,98439.88
2022-12-22T09:29:10.333Z,98444.19
2022-12-22T09:31:37.328Z,98453.66
2022-12-22T09:34:04.217Z,98447.69
2022-12-22T09:36:33.720Z,98462.84
2022-12-22T09:39:05.203Z,98465.78
2022-12-22T09:41:37.362Z,98468.50
2022-12-22T09:44:06.113Z,98472.81
2022-12-22T09:46:35.501Z,98480.91
2022-12-22T09:49:05.139Z,98486.31
2022-12-22T09:51:34.000Z,98483.84
2022-12-22T09:54:01.866Z,98492.78
2022-12-22T09:56:29.747Z,98491.97
2022-12-22T09:58:58.371Z,98490.34
2022-12-22T10:01:41.846Z,98490.09
2022-12-22T10:04:17.996Z,98487.63
2022-12-22T10:06:53.899Z,98493.34
2022-12-22T10:12:16.750Z,98495.00
2022-12-22T10:14:47.092Z,98495.78
2022-12-22T10:17:23.994Z,98503.09
2022-12-22T10:19:52.869Z,98504.97
2022-12-22T10:22:26.000Z,98509.53
2022-12-22T10:24:52.998Z,98521.41
2022-12-22T10:27:27.475Z,98523.56
2022-12-22T10:30:17.848Z,98529.19
2022-12-22T10:33:00.317Z,98526.50
2022-12-22T10:35:27.218Z,98525.69
2022-12-22T10:37:54.186Z,98526.50
2022-12-22T10:40:22.897Z,98527.81
2022-12-22T10:42:53.750Z,98522.91
2022-12-22T10:45:25.812Z,98526.16
2022-12-22T10:47:55.997Z,98536.16
2022-12-22T10:50:23.324Z,98531.56
2022-12-22T10:52:52.249Z,98521.84
2022-12-22T10:55:21.832Z,98524.28
2022-12-22T10:57:49.324Z,98530.53
2022-12-22T11:00:26.137Z,98533.47
2022-12-22T11:02:54.552Z,98526.16
2022-12-22T11:05:21.840Z,98528.88
2022-12-22T11:07:49.047Z,98530.75
2022-12-22T11:10:19.225Z,98540.72
2022-12-22T11:12:57.756Z,98536.41
2022-12-22T11:15:34.731Z,98534.78
2022-12-22T11:18:13.796Z,98547.69
2022-12-22T11:20:51.628Z,98551.22
2022-12-22T11:23:26.412Z,98548.78
2022-12-22T11:26:04.021Z,98553.59
2022-12-22T11:28:44.005Z,98548.19
2022-12-22T11:31:24.091Z,98542.22
2022-12-22T11:34:08.504Z,98539.22
2022-12-22T11:36:47.069Z,98538.88
2022-12-22T11:39:17.466Z,98532.69
2022-12-22T11:42:03.642Z,98533.97
2022-12-22T11:44:45.583Z,98523.44
2022-12-22T11:47:24.111Z,98525.31
2022-12-22T11:50:59.572Z,98523.69
2022-12-22T11:53:42.062Z,98526.38
2022-12-22T11:56:21.901Z,98523.34
2022-12-22T11:59:04.029Z,98527.94
2022-12-22T12:01:49.279Z,98525.00
2022-12-22T12:04:56.583Z,98537.66
2022-12-22T12:07:29.032Z,98534.13
2022-12-22T12:10:06.609Z,98538.75
2022-12-22T12:12:42.983Z,98530.41
2022-12-22T12:15:20.982Z,98533.09
2022-12-22T12:18:01.135Z,98532.81
2022-12-22T12:20:40.415Z,98535.81
2022-12-22T12:23:24.154Z,98538.50
2022-12-22T12:26:01.165Z,98531.19
2022-12-22T12:28:41.835Z,98534.97
2022-12-22T12:31:18.080Z,98533.34
2022-12-22T12:33:49.624Z,98536.03
2022-12-22T12:36:25.000Z,98547.88
2022-12-22T12:39:09.164Z,98540.84
2022-12-22T12:41:45.075Z,98539.78
2022-12-22T12:44:14.967Z,98544.13
2022-12-22T12:46:57.205Z,98538.97
2022-12-22T12:49:59.849Z,98536.28
2022-12-22T12:53:15.296Z,98533.25
2022-12-22T12:56:04.122Z,98531.06
2022-12-22T12:59:04.240Z,98527.06
2022-12-22T13:01:56.234Z,98534.31
2022-12-22T13:05:11.476Z,98528.91
2022-12-22T13:08:14.519Z,98534.00
2022-12-22T13:11:31.084Z,98524.00
2022-12-22T13:14:04.428Z,98523.53
2022-12-22T13:16:37.580Z,98529.00
2022-12-22T13:19:24.406Z,98511.50
2022-12-22T13:21:57.781Z,98512.91
2022-12-22T13:24:29.513Z,98506.97
2022-12-22T13:27:03.547Z,98507.56
2022-12-22T13:29:41.949Z,98512.72
2022-12-22T13:32:21.170Z,98520.31
2022-12-22T13:35:29.896Z,98510.81
2022-12-22T13:37:47.101Z,98509.78
2022-12-22T13:40:17.087Z,98511.66
2022-12-22T13:42:48.029Z,98509.19
2022-12-22T13:45:20.290Z,98508.41
2022-12-22T13:47:48.820Z,98510.81
2022-12-22T13:50:22.407Z,98513.28
2022-12-22T13:52:50.799Z,98505.19
2022-12-22T13:55:23.375Z,98500.38
2022-12-22T13:57:57.994Z,98507.38
2022-12-22T14:00:29.601Z,98507.16
2022-12-22T14:02:56.702Z,98493.34
2022-12-22T14:05:31.333Z,98503.84
2022-12-22T14:08:00.168Z,98496.59
2022-12-22T14:10:30.705Z,98497.13
2022-12-22T14:12:57.723Z,98495.75
2022-12-22T14:15:24.657Z,98504.38
2022-12-22T14:17:53.537Z,98498.16
2022-12-22T14:20:25.053Z,98496.03
2022-12-22T14:22:56.651Z,98493.06
2022-12-22T14:25:28.729Z,98492.81
2022-12-22T14:27:57.190Z,98491.50
2022-12-22T14:30:29.107Z,98497.47
2022-12-22T14:33:16.719Z,98489.13
2022-12-22T14:35:43.799Z,98494.28
2022-12-22T14:38:20.508Z,98489.69
2022-12-22T14:40:54.442Z,98486.75
2022-12-22T14:43:28.380Z,98489.44
2022-12-22T14:46:05.144Z,98488.13
2022-12-22T14:48:36.677Z,98483.56
2022-12-22T14:51:03.995Z,98480.59
2022-12-22T14:53:39.917Z,98483.06
2022-12-22T14:56:12.066Z,98480.09
2022-12-22T14:58:41.754Z,98473.63
2022-12-22T15:01:18.324Z,98475.50
2022-12-22T15:03:58.384Z,98461.47
2022-12-22T15:06:34.765Z,98472.25
2022-12-22T15:10:03.614Z,98472.50
2022-12-22T15:12:13.580Z,98468.72
2022-12-22T15:14:41.084Z,98477.06
2022-12-22T15:17:22.081Z,98474.63
2022-12-22T15:19:51.540Z,98471.69
2022-12-22T15:22:18.633Z,98463.56
2022-12-22T15:24:45.577Z,98466.28
2022-12-22T15:27:12.398Z,98459.81
2022-12-22T15:29:39.355Z,98452.78
2022-12-22T15:32:10.996Z,98456.31
2022-12-22T15:34:37.889Z,98461.94
2022-12-22T15:37:06.175Z,98446.31
2022-12-22T15:39:33.462Z,98452.28
2022-12-22T15:42:00.325Z,98444.50
2022-12-22T15:44:27.230Z,98444.25
2022-12-22T15:46:56.741Z,98429.66
2022-12-22T15:49:26.603Z,98444.81
2022-12-22T15:51:57.192Z,98437.50
2022-12-22T15:54:28.026Z,98440.81
2022-12-22T15:56:55.973Z,98436.81
2022-12-22T15:59:25.636Z,98439.00
2022-12-22T16:01:58.340Z,98440.63
2022-12-22T16:04:28.638Z,98442.75
2022-12-22T16:06:57.062Z,98435.22
2022-12-22T16:09:28.929Z,98421.16
2022-12-22T16:11:56.895Z,98423.06
2022-12-22T16:14:24.417Z,98420.34
2022-12-22T16:16:51.411Z,98414.13
2022-12-22T16:19:19.099Z,98414.13
2022-12-22T16:21:48.613Z,98412.50
2022-12-22T16:24:25.065Z,98412.50
2022-12-22T16:26:56.830Z,98410.03
2022-12-22T16:29:25.079Z,98397.34
2022-12-22T16:31:52.276Z,98393.00
2022-12-22T16:34:19.415Z,98388.19
2022-12-22T16:36:46.312Z,98388.41
2022-12-22T16:39:13.227Z,98385.97
2022-12-22T16:41:40.913Z,98385.97
2022-12-22T16:44:09.976Z,98370.00
2022-12-22T16:46:39.151Z,98379.28
2022-12-22T16:49:08.768Z,98375.25
2022-12-22T16:51:38.906Z,98373.38
2022-12-22T16:54:05.883Z,98367.97
2022-12-22T16:56:32.924Z,98373.63
2022-12-22T16:59:00.998Z,98369.28
2022-12-22T17:01:36.960Z,98361.19
2022-12-22T17:04:08.438Z,98364.94
2022-12-22T17:06:36.635Z,98347.34
2022-12-22T17:09:06.667Z,98349.25
2022-12-22T17:11:34.566Z,98349.50
2022-12-22T17:14:06.642Z,98356.50
2022-12-22T17:16:35.084Z,98357.34
2022-12-22T17:19:01.943Z,98355.72
2022-12-22T17:21:29.876Z,98353.03
2022-12-22T17:24:04.086Z,98354.06
2022-12-22T17:26:33.031Z,98354.06
2022-12-22T17:29:00.337Z,98353.50
2022-12-22T17:31:27.461Z,98348.91
2022-12-22T17:33:56.845Z,98340.00
2022-12-22T17:36:30.976Z,98342.72
2022-12-22T17:38:58.634Z,98334.63
2022-12-22T17:41:26.097Z,98339.44
2022-12-22T17:43:53.133Z,98327.59
2022-12-22T17:46:21.560Z,98325.94
2022-12-22T17:48:48.911Z,98333.00
2022-12-22T17:51:20.383Z,98325.16
2022-12-22T17:53:47.545Z,98318.91
2022-12-22T17:56:17.856Z,98316.22
2022-12-22T17:58:45.508Z,98313.50
2022-12-22T18:01:24.308Z,98307.88
2022-12-22T18:03:51.472Z,98311.41
2022-12-22T18:06:23.118Z,98318.41
2022-12-22T18:08:51.954Z,98302.22
2022-12-22T18:11:18.997Z,98295.69
2022-12-22T18:13:46.102Z,98288.97
2022-12-22T18:16:17.949Z,98291.66
2022-12-22T18:18:44.883Z,98279.00
2022-12-22T18:21:17.012Z,98275.72
2022-12-22T18:23:50.400Z,98273.03
2022-12-22T18:26:21.783Z,98266.25
2022-12-22T18:28:49.160Z,98271.66
2022-12-22T18:31:16.142Z,98265.16
2022-12-22T18:33:43.203Z,98258.41
2022-12-22T18:36:16.903Z,98262.72
2022-12-22T18:38:46.346Z,98248.44
2022-12-22T18:41:18.607Z,98258.16
2022-12-22T18:43:45.612Z,98247.59
2022-12-22T18:46:12.901Z,98248.44
2022-12-22T18:48:39.974Z,98234.94
2022-12-22T18:51:07.559Z,98230.31
2022-12-22T18:53:34.593Z,98217.16
2022-12-22T18:56:02.872Z,98219.31
2022-12-22T18:58:29.741Z,98209.06
2022-12-22T19:00:56.890Z,98214.69
2022-12-22T19:03:25.829Z,98206.59
2022-12-22T19:05:52.767Z,98206.56
2022-12-22T19:08:21.849Z,98192.28
2022-12-22T19:10:50.914Z,98193.09
2022-12-22T19:13:25.337Z,98182.59
2022-12-22T19:15:52.305Z,98178.03
2022-12-22T19:18:26.539Z,98164.25
2022-12-22T19:20:54.266Z,98163.44
2022-12-22T19:23:22.489Z,98171.00
2022-12-22T19:25:52.726Z,98171.00
2022-12-22T19:28:27.313Z,98164.78
2022-12-22T19:30:55.508Z,98156.41
2022-12-22T19:33:27.442Z,98147.50
2022-12-22T19:35:54.399Z,98142.34
2022-12-22T19:38:24.818Z,98126.16
2022-12-22T19:40:54.342Z,98116.69
2022-12-22T19:43:22.924Z,98104.00
2022-12-22T19:45:52.196Z,98099.41
2022-12-22T19:48:21.679Z,98094.84
2022-12-22T19:50:49.011Z,98084.03
2022-12-22T19:53:15.986Z,98080.50
2022-12-22T19:55:44.655Z,98064.59
2022-12-22T19:58:16.644Z,98061.06
2022-12-22T20:00:47.951Z,98050.28
2022-12-22T20:03:16.851Z,98053.22
2022-12-22T20:05:44.113Z,98051.03
2022-12-22T20:08:11.067Z,98052.94
2022-12-22T20:10:39.804Z,98046.72
2022-12-22T20:13:13.254Z,98052.94
2022-12-22T20:15:40.417Z,98049.44
2022-12-22T20:18:15.638Z,98025.13
2022-12-22T20:20:44.339Z,98008.41
2022-12-22T20:23:15.653Z,97987.06
2022-12-22T20:25:43.893Z,97995.69
2022-12-22T20:28:17.074Z,98008.34
2022-12-22T20:30:44.772Z,98013.75
2022-12-22T20:33:13.616Z,98010.00
2022-12-22T20:35:41.635Z,98000.81
2022-12-22T20:38:15.095Z,97999.75
2022-12-22T20:40:42.071Z,97994.59
2022-12-22T20:43:13.661Z,97984.06
2022-12-22T20:45:41.524Z,97986.75
2022-12-22T20:48:18.514Z,97983.53
2022-12-22T20:50:45.513Z,97981.09
2022-12-22T20:53:16.883Z,97977.56
2022-12-22T20:55:43.880Z,97971.63
2022-12-22T20:58:16.302Z,97964.28
2022-12-22T21:00:43.781Z,97968.91
2022-12-22T21:03:10.792Z,97968.34
2022-12-22T21:05:39.285Z,97962.94
2022-12-22T21:08:18.228Z,97962.41
2022-12-22T21:10:47.931Z,97951.03
2022-12-22T21:13:16.259Z,97949.97
2022-12-22T21:15:45.858Z,97959.41
2022-12-22T21:18:16.159Z,97959.38
2022-12-22T21:20:44.788Z,97955.34
2022-12-22T21:23:14.039Z,97953.16
2022-12-22T21:25:46.550Z,97953.16
2022-12-22T21:28:21.446Z,97958.84
2022-12-22T21:30:48.447Z,97955.03
2022-12-22T21:33:15.366Z,97951.25
2022-12-22T21:35:42.587Z,97958.78
2022-12-22T21:38:16.852Z,97957.97
2022-12-22T21:40:46.816Z,97954.72
2022-12-22T21:43:15.254Z,97962.81
2022-12-22T21:45:43.293Z,97956.66
2022-12-22T21:48:11.999Z,97955.03
2022-12-22T21:50:39.304Z,97956.34
2022-12-22T21:53:06.426Z,97957.41
2022-12-22T21:55:36.806Z,97968.72
2022-12-22T21:58:04.943Z,97962.53
2022-12-22T22:00:32.968Z,97964.91
2022-12-22T22:03:01.332Z,97970.81
2022-12-22T22:05:30.303Z,97969.72
2022-12-22T22:07:58.828Z,97977.22
2022-12-22T22:10:28.086Z,97975.59
2022-12-22T22:12:56.797Z,97988.00
2022-12-22T22:15:24.825Z,97984.78
2022-12-22T22:17:52.210Z,98000.63
2022-12-22T22:20:21.030Z,98001.47
2022-12-22T22:22:49.723Z,98001.19
2022-12-22T22:25:18.508Z,98005.75
2022-12-22T22:27:48.155Z,98009.53
2022-12-22T22:30:18.983Z,98008.69
2022-12-22T22:32:46.010Z,98004.91
2022-12-22T22:35:13.176Z,98024.63
2022-12-22T22:37:40.573Z,98025.69
2022-12-22T22:40:11.923Z,98020.56
2022-12-22T22:42:38.775Z,98022.44
2022-12-22T22:45:06.814Z,98030.22
2022-12-22T22:47:35.201Z,98030.47
2022-12-22T22:50:08.815Z,98028.84
2022-12-22T22:52:36.253Z,98033.44
2022-12-22T22:55:03.182Z,98039.66
2022-12-22T22:57:30.066Z,98039.91
2022-12-22T22:59:56.950Z,98042.09
2022-12-22T23:02:24.218Z,98034.78
2022-12-22T23:04:52.647Z,98039.06
2022-12-22T23:07:19.538Z,98034.75
2022-12-22T23:09:46.567Z,98040.69
2022-12-22T23:12:13.613Z,98040.16
2022-12-22T23:14:40.518Z,98026.13
2022-12-22T23:17:07.891Z,98027.41
2022-12-22T23:19:34.745Z,98029.88
2022-12-22T23:22:03.407Z,98024.47
2022-12-22T23:24:31.343Z,98028.50
2022-12-22T23:26:58.466Z,98035.25
2022-12-22T23:29:25.400Z,98025.56
2022-12-22T23:31:52.613Z,98026.63
2022-12-22T23:34:19.531Z,98035.78
2022-12-22T23:36:46.488Z,98043.88
2022-12-22T23:39:15.434Z,98044.13
2022-12-22T23:41:42.516Z,98054.09
2022-12-22T23:44:09.691Z,98049.78
2022-12-22T23:46:36.650Z,98057.03
2022-12-22T23:49:03.559Z,98059.72
2022-12-22T23:51:30.587Z,98061.06
2022-12-22T23:53:59.597Z,98068.31
2022-12-22T23:56:28.319Z,98068.31
2022-12-22T23:58:55.488Z,98066.69
